DW9104 Weather Reports


Display with metric or nautical units.
time (UTC)temp
F
wind
direction
speed
MPH
gust
MPH
rain 1hr
in
rain 24hr
in
rain mn
in
humidity
%
barometer
mb
20210728050906 57 53 0.0 0.0 0.01 0.35 0.01 95 1006.7
20210728050406 57 41 0.0 0.0 0.01 0.35 0.01 95 1006.6
20210728043906 57 110 0.0 0.0 0.00 0.34 0.00 95 1006.6
20210728040406 58 13 0.0 0.0 0.00 0.34 0.00 95 1006.6
20210728033907 58 72 0.0 0.0 0.00 0.34 0.00 95 1006.7
20210728033406 58 72 0.0 0.0 0.00 0.34 0.00 95 1006.7
20210728030906 58 85 0.0 0.0 0.00 0.34 0.00 96 1006.8
20210728030406 58 85 0.0 0.0 0.00 0.34 0.00 96 1006.8
20210728023907 58 55 0.0 0.0 0.00 0.34 0.00 95 1006.9
20210728023406 58 55 0.0 1.0 0.00 0.34 0.00 96 1007.0
20210728020906 58 355 0.0 1.0 0.00 0.34 0.00 95 1007.0
20210728020406 58 62 0.0 1.0 0.00 0.34 0.00 95 1007.0
20210728013907 58 327 0.0 0.0 0.00 0.34 0.00 95 1006.9
20210728013407 58 33 0.0 1.0 0.00 0.34 0.00 95 1007.0
20210728010906 58 44 0.0 0.0 0.00 0.34 0.00 95 1007.0
20210728010406 58 44 0.0 1.0 0.00 0.34 0.00 95 1006.9
20210728003906 58 28 0.0 0.0 0.00 0.34 0.00 95 1007.1
20210728003406 58 27 0.0 0.0 0.00 0.34 0.00 95 1007.3
20210728000906 57 27 0.0 0.0 0.00 0.34 0.00 95 1007.2
20210728000407 57 27 0.0 0.0 0.00 0.34 0.00 95 1007.2
20210727233906 58 27 0.0 0.0 0.00 0.34 0.00 95 1007.3
20210727233406 58 27 0.0 0.0 0.00 0.34 0.00 95 1007.4
20210727230906 58 27 0.0 0.0 0.00 0.34 0.00 95 1007.6
20210727230406 58 27 0.0 0.0 0.00 0.34 0.00 95 1007.6
20210727223906 58 27 0.0 0.0 0.00 0.34 0.34 94 1007.8
20210727223405 58 27 0.0 0.0 0.00 0.34 0.34 94 1007.8
20210727220908 58 27 0.0 0.0 0.00 0.34 0.34 94 1007.9
20210727220406 58 27 0.0 0.0 0.00 0.34 0.34 94 1007.9
20210727213906 59 28 0.0 0.0 0.00 0.34 0.34 94 1007.7
20210727213406 59 28 0.0 0.0 0.00 0.34 0.34 94 1007.6
20210727210907 59 28 0.0 0.0 0.00 0.34 0.34 94 1007.8
20210727210408 59 28 0.0 0.0 0.00 0.34 0.34 93 1007.8
20210727203907 59 28 0.0 0.0 0.00 0.34 0.34 93 1007.7
20210727203407 59 28 0.0 1.0 0.00 0.34 0.34 93 1007.6
20210727200907 60 26 0.0 1.0 0.00 0.34 0.34 92 1007.5
20210727200407 61 26 0.0 1.0 0.00 0.34 0.34 92 1007.4
20210727193906 62 78 0.0 1.0 0.00 0.34 0.34 93 1007.3
20210727193406 62 35 0.0 1.0 0.00 0.34 0.34 92 1007.3
20210727190907 62 66 0.0 0.0 0.00 0.34 0.34 92 1007.3
20210727190406 62 66 0.0 1.0 0.00 0.34 0.34 92 1007.3
20210727183906 62 47 0.0 1.0 0.00 0.34 0.34 92 1007.4
20210727183407 62 93 0.0 1.0 0.00 0.34 0.34 92 1007.4
20210727180906 62 47 0.0 1.0 0.00 0.34 0.34 92 1007.2
20210727180406 62 24 0.0 2.0 0.00 0.34 0.34 92 1007.2
20210727173906 63 45 0.0 0.0 0.04 0.34 0.34 93 1007.2
20210727173406 63 123 0.0 3.0 0.06 0.34 0.34 93 1007.2
20210727170907 62 86 0.0 2.0 0.26 0.34 0.34 93 1007.4
20210727170406 62 56 0.0 3.0 0.31 0.34 0.34 92 1007.4
20210727163907 62 53 2.0 3.0 0.28 0.30 0.30 90 1007.5
20210727163407 63 77 1.0 3.0 0.26 0.28 0.28 90 1007.5
20210727160907 65 36 0.0 3.0 0.06 0.08 0.08 85 1007.6
20210727160407 65 89 0.0 3.0 0.01 0.03 0.03 84 1007.4
20210727153907 67 13 0.0 0.0 0.00 0.02 0.02 82 1007.0
20210727153407 67 51 0.0 0.0 0.00 0.02 0.02 81 1007.1
20210727150907 69 19 0.0 0.0 0.00 0.02 0.02 75 1007.3
20210727150406 70 181 0.0 0.0 0.00 0.02 0.02 71 1007.2
20210727143906 71 100 0.0 0.0 0.00 0.02 0.02 71 1007.3
20210727143406 71 99 0.0 0.0 0.00 0.02 0.02 69 1007.3
20210727140907 71 173 0.0 0.0 0.00 0.02 0.02 69 1007.5
20210727140407 71 218 0.0 0.0 0.00 0.02 0.02 70 1007.5
20210727133907 70 119 0.0 0.0 0.00 0.02 0.02 71 1007.7
20210727133406 70 173 0.0 0.0 0.00 0.02 0.02 71 1007.7
20210727130907 71 230 0.0 0.0 0.00 0.02 0.02 74 1007.8
20210727130406 70 1 0.0 0.0 0.00 0.02 0.02 77 1007.9
20210727123906 70 11 0.0 0.0 0.00 0.02 0.02 72 1008.2
20210727123406 70 11 0.0 0.0 0.00 0.02 0.02 73 1008.2
20210727120906 71 128 0.0 0.0 0.00 0.02 0.02 71 1008.4
20210727120406 72 230 0.0 0.0 0.00 0.02 0.02 69 1008.5
20210727113906 69 88 0.0 0.0 0.00 0.02 0.02 80 1008.8
20210727113406 69 84 0.0 0.0 0.00 0.02 0.02 79 1008.8
20210727110906 68 142 0.0 0.0 0.00 0.02 0.02 82 1009.1
20210727110407 67 142 0.0 0.0 0.00 0.02 0.02 81 1009.1
20210727103906 67 22 0.0 0.0 0.00 0.02 0.02 82 1009.0
20210727103407 67 22 0.0 0.0 0.00 0.02 0.02 82 1009.0
20210727100906 67 20 0.0 0.0 0.02 0.02 0.02 82 1009.1
20210727100406 67 31 0.0 0.0 0.02 0.02 0.02 85 1009.2
20210727093906 65 37 0.0 0.0 0.02 0.02 0.02 87 1009.4
20210727093406 66 37 0.0 0.0 0.02 0.02 0.02 87 1009.4
20210727090906 66 354 0.0 0.0 0.00 0.00 0.00 81 1009.3
20210727090406 67 355 0.0 0.0 0.00 0.00 0.00 79 1009.2
20210727083906 67 59 0.0 0.0 0.00 0.00 0.00 79 1009.4
20210727083406 67 59 0.0 0.0 0.00 0.00 0.00 79 1009.4
20210727080906 66 165 0.0 0.0 0.00 0.00 0.00 81 1009.6
20210727080406 65 165 0.0 0.0 0.00 0.00 0.00 80 1009.5
20210727073906 64 167 0.0 0.0 0.00 0.00 0.00 84 1009.7
20210727073406 63 167 0.0 0.0 0.00 0.00 0.00 84 1009.7
20210727070906 62 75 0.0 0.0 0.00 0.00 0.00 87 1009.6
20210727070406 62 75 0.0 0.0 0.00 0.00 0.00 87 1009.6
20210727063906 61 75 0.0 0.0 0.00 0.00 0.00 89 1009.6
20210727063406 61 75 0.0 0.0 0.00 0.00 0.00 89 1009.5
20210727060906 60 75 0.0 0.0 0.00 0.00 0.00 90 1009.5
20210727060406 60 75 0.0 0.0 0.00 0.00 0.00 90 1009.5
20210727053907 60 75 0.0 0.0 0.00 0.00 0.00 90 1009.2
20210727053406 60 75 0.0 0.0 0.00 0.00 0.00 90 1009.2